Valcourt, Canada
Current Conditions -  °F | °C
As of 10:00 PM on Friday 21 Nov 2014 (Local Time) from CYSC Reporting Station
Overcast Overcast  
Wind Chill:   Ceiling: 4400
Heat Index: 14°   Visibility: 9mi
Dew Point:   Wind: 6mph
Humidity: 73%   Direction: 210°SSW
Pressure: 30.28"   Gusts: NA
Location:  45.48°N, 72.32°W
Report Text: CYSC 220300Z AUTO 21005KT 9SM OVC044 M10/M14 A3028 RMK SLP270
Loading
Personal Weather Stations






























Interactive Weather Map New forecast layout! Learn more

10-Day Weather Forecast

Advertisements
Track Severe Weather on mobile